Hlavní strana
METAR-TAF:

METAR-TAF

Letiště :

Čingischánovo mezinárodní letiště

Ulánbátar, Mongolsko

zeměpisná šířka: 47-55N, zeměpisná délka: 106-52E, výška: 1306 m

Aktuální stav počasí

Zpráva byla vytvořena před 25 minutami, v 23:00 UTC
vítr z různých směrů 2 kt
Teplota -27°C
Vlhkost vzduchu 69%
Tlak 1018 hPa
Viditelnost 10 km a více
Žádná oblačnost pod 1500 m, nevyskytují se cumulonimby.

METAR: ZMUB 132300Z VRB01MPS CAVOK M27/M31 Q1018 NOSIG RMK QFE656.4 70

Čas: 07:25 (23:25 UTC)

Předpověď počasí

Zpráva byla vytvořena před 6 hodinami a 55 minutami, v 16:30 UTC
Předpověď platná od 13 v 18 UTC do 14 v 24 UTC
vítr z různých směrů 4 kt
Viditelnost 10 km a více
Polojasno ve výšce 10000 ft
Změna
od 13 v 20 UTC do 13 v 22 UTC
Viditelnost: 6000 m
Změna
od 14 v 00 UTC do 14 v 02 UTC
Viditelnost: 4000 m
kouř
Změna
od 14 v 04 UTC do 14 v 06 UTC
Viditelnost: 6000 m

TAF: ZMUB 131630Z 1318/1424 VRB02MPS 9999 SCT100 TNM28/1323Z TXM08/1407Z BECMG 1320/1322 6000 BECMG 1400/1402 4000 FU BECMG 1404/1406 6000

Stav a předpovědi počasí z více než 4 000 letišť (zprávy METAR a TAF).

Červené a žluté tečky na mapě představují dostupné meteorologické stanice.

Když kurzor umístíte na tečku, zobrazí se název stanice.

Pak kliknutím zobrazíte stav a předpověď počasí.

Chcete-li změnit mapu, kliknutím na zelené tlačítko se znaménkem +mapu přiblížíte, kliknutím na zelené tlačítko se znaménkem – mapu oddálíte a kliknutím na zelené šipky přejdete na sousední mapy.


METAR-TAF: